EWRNEWARK LIBERTY INTL
METARs for airports near EWR, sorted by distance:
N 0 nm 17' KEWR 221900Z 30005KT 10SM FEW075 FEW250 16/M04 A3004
SW 5 nm 22' KLDJ 221835Z 00000KT 10SM CLR 15/M04 A3005
NE 10 nm 8' KTEB 221851Z VRB04G16KT 10SM CLR 15/M04 A3004
NW 12 nm 172' KCDW 221853Z 26008KT 10SM CLR 16/M08 A3004
NW 12 nm 186' KMMU 221845Z 35006G13KT 10SM FEW070 15/M04 A3005
E 14 nm 20' KLGA 221851Z 34006KT 10SM FEW060 FEW250 14/M05 A3005
E 18 nm 13' KJFK 221851Z 31010KT 10SM FEW075 FEW250 15/M03 A3006
W 23 nm 106' KSMQ 221853Z 10SM CLR 17/M04 A3003
S 30 nm 153' KBLM 221856Z 24006KT 10SM CLR 16/M03 A3007
NE 30 nm 439' KHPN 221856Z 29004KT 10SM FEW040 13/M04 A3004
E 34 nm 81' KFRG 221853Z 28008KT 10SM CLR 14/M03 A3006
NW 36 nm 421' KFWN 221853Z 35006G16KT 10SM CLR 15/M06 A3005
SW 38 nm 212' KTTN 221853Z 31008G14KT 10SM CLR 14/M02 A3005
S 40 nm 100' KNEL 221900Z 31007G15KT CLR 16/M04 A3005
SW 45 nm 140' KWRI 221855Z 27009KT 10SM CLR 15/M02 A3006
S 46 nm 86' KMJX 221856Z 26010KT 10SM CLR 16/M03 A3007
SW 48 nm 393' KDYL 221854Z VRB03KT 10SM CLR 16/M02 A3005
N 48 nm 490' KSWF 221745Z 27006KT 10SM SKC 12/M04 A3004
E 48 nm 98' KISP 221856Z 36007G21KT 320V020 10SM FEW065 FEW250 14/M03 A3006
N 49 nm 369' KMGJ 221854Z 10SM CLR 14/M06 A3002
NE 51 nm 456' KDXR 221853Z 35010G20KT 10SM CLR 13/M03 A3006
SW 53 nm 119' KPNE 221854Z 31010G21KT 10SM CLR 16/M02 A3008
W 54 nm 567' KCKZ 221855Z 36007KT 320V040 10SM CLR 15/M04 A3006
SW 54 nm 52' KVAY 221854Z 32003KT 10SM CLR 15/M02 A3007
NE 55 nm 8' KBDR 221852Z 21014KT 10SM CLR 13/M01 A3006
W 57 nm 525' KUKT 221855Z VRB05KT 10SM CLR 16/M03 A3006
N 57 nm 163' KPOU 221853Z 13004KT 10SM CLR 13/M03 A3004
W 57 nm 393' KABE 221851Z 24003KT 10SM CLR 15/M03 A3005
E 59 nm 81' KHWV 221856Z 35010G17KT 10SM CLR 13/M04 A3006
SW 60 nm 301' KLOM 221855Z 26005KT 10SM SCT070 15/M02 A3007
W 60 nm 399' KXLL 221855Z 31011G17KT 270V340 10SM CLR 16/M01 A3007
NW 61 nm 1915' KMPO 221853Z 32014G24KT 10SM CLR 11/M07 A3004
NE 66 nm 730' KOXC 221851Z 32010KT 10SM CLR 12/M06 A3004
NE 67 nm 12' KHVN 221853Z 35008G15KT 10SM CLR 13/02 A3004
SW 69 nm 308' KPTW 221854Z 29008G17KT 10SM CLR 16/M03 A3007
SW 69 nm 35' KPHL 221854Z VRB06KT 10SM FEW060 16/M02 A3008
E 70 nm 66' KFOK 221853Z 31008KT 10SM CLR 13/M04 A3007
S 76 nm 74' KACY 221854Z 20005KT 10SM CLR 16/M04 A3007
SW 77 nm 464' KOQN 221855Z 26005KT 10SM CLR 15/M03 A3007
NE 77 nm 103' KMMK 221853Z 00000KT 10SM CLR 14/M09 A3004
NW 80 nm 961' KAVP 221854Z 34014G22KT 5SM HZ FEW001 14/M08 A3007
W 84 nm 343' KRDG 221854Z 32008G20KT 10SM CLR 16/M02 A3006
W 84 nm 1603' KHZL 221855Z 30007KT CLR 14/M05 A3007
NE 86 nm 416' KSNC 221855Z VRB06G13KT 10SM CLR 15/M11 A3003
E 88 nm 54' KJPX 221855Z 34005KT 10SM CLR 12/M06 A3005
SW 88 nm 660' KMQS 221855Z 30009G19KT 10SM CLR 14/M02 A3008
SW 89 nm 84' KMIV 221854Z VRB03G17KT 10SM CLR 16/M04 A3007
SW 89 nm 79' KILG 221851Z 34014G19KT 10SM CLR 16/M02 A3009
NE 92 nm 18' KHFD 221853Z 00000KT 10SM CLR 14/M09 A3003
TAFs for airports near EWR, sorted by distance:
N 0 nm 17' KEWR KEWR 221737Z 2218/2324 33010G15KT P6SM FEW250
  FM222200 32005KT P6SM FEW250
  FM230100 VRB03KT P6SM SKC
  FM231300 19008KT P6SM FEW250
  FM231600 18011G18KT P6SM SCT250
NE 10 nm 8' KTEB KTEB 221737Z 2218/2324 31010KT P6SM FEW250
  FM222200 33005KT P6SM FEW250
  FM230100 VRB02KT P6SM SKC
  FM231300 19008KT P6SM FEW250
  FM231600 18010G17KT P6SM SCT250
E 14 nm 20' KLGA KLGA 221737Z 2218/2324 32010G17KT P6SM FEW250
  FM222300 18006KT P6SM FEW250
  FM230300 20005KT P6SM SKC
  FM231300 18009KT P6SM FEW250
  FM231600 17013G19KT P6SM SCT250
E 18 nm 13' KJFK TAF KJFK 221737Z 2218/2324 31010G15KT P6SM FEW250
  FM222100 16009KT P6SM FEW250
  FM230100 19005KT P6SM SKC
  FM231300 19008KT P6SM FEW250
  FM231600 18014G20KT P6SM SCT250
NE 30 nm 439' KHPN KHPN 221737Z 2218/2318 32008KT P6SM FEW250
  FM230000 VRB02KT P6SM SKC
  FM231500 17008KT P6SM SCT250
  AMD NOT SKED
SW 38 nm 212' KTTN KTTN 221725Z 2218/2318 33010G18KT P6SM FEW060
  FM222100 33006KT P6SM SKC
  FM230200 VRB02KT P6SM SKC
  FM231300 19007KT P6SM FEW060
  FM231700 19008G16KT P6SM FEW060
SW 45 nm 140' KWRI TAF KWRI 221800Z 2218/2324 33010G18KT 9999 SKC QNH3005INS
  BECMG 2223/2224 VRB06KT 9999 FEW060 QNH3010INS
  BECMG 2313/2314 19010KT 9999 SKC QNH3001INS TX17/2220Z TN02/2310Z
N 48 nm 490' KSWF KSWF 221737Z 2218/2324 32009KT P6SM FEW250
  FM230000 VRB03KT P6SM SKC
  FM231300 22008KT P6SM FEW250
  FM231600 21011G17KT P6SM SCT250
  AMD NOT SKED
E 48 nm 98' KISP TAF KISP 221737Z 2218/2318 32010G20KT P6SM FEW050 FEW250
  FM222200 20007KT P6SM FEW250
  FM230100 VRB02KT P6SM SKC
  FM231300 18010KT P6SM SCT250
SW 53 nm 119' KPNE KPNE 221725Z 2218/2318 31010G18KT P6SM FEW060
  FM222100 32006KT P6SM SKC
  FM230000 VRB04KT P6SM SKC
  FM231300 19005KT P6SM FEW060
  FM231700 20008G16KT P6SM FEW250
NE 55 nm 8' KBDR TAF
  AMD KBDR 221802Z 2218/2318 22011G18KT P6SM FEW250
  FM222000 22005KT P6SM FEW250
  FM230100 VRB03KT P6SM SKC
  FM231300 17010KT P6SM SCT250
N 57 nm 163' KPOU KPOU 221734Z 2218/2318 32007KT P6SM SKC
  FM230000 VRB02KT P6SM SKC
  FM231600 18012KT P6SM FEW100
W 57 nm 393' KABE TAF KABE 221725Z 2218/2318 30010G16KT P6SM FEW060
  FM222100 34008KT P6SM SKC
  FM230200 VRB02KT P6SM SKC
  FM231400 20005KT P6SM FEW060
  FM231700 20008G16KT P6SM FEW060
SW 69 nm 35' KPHL TAF KPHL 221725Z 2218/2324 33012G18KT P6SM FEW060
  FM222200 32008KT P6SM SKC
  FM230200 VRB03KT P6SM SKC
  FM231200 19006KT P6SM FEW060
  FM231700 20010G18KT P6SM FEW060
S 76 nm 74' KACY TAF KACY 221725Z 2218/2318 33010G18KT P6SM FEW060
  FM222100 10010G16KT P6SM FEW250
  FM222300 15007KT P6SM SKC
  FM230200 VRB02KT P6SM SKC
  FM231400 17006KT P6SM FEW060
  FM231700 17010G18KT P6SM FEW060
NW 80 nm 961' KAVP KAVP 221721Z 2218/2318 33011G20KT P6SM SKC
  FM222300 34005KT P6SM SKC
  FM231700 20012G21KT P6SM FEW220
W 84 nm 343' KRDG KRDG 221725Z 2218/2318 31010G18KT P6SM FEW060
  FM222100 32008KT P6SM SKC
  FM230200 VRB02KT P6SM SKC
  FM231400 19005KT P6SM FEW060
  FM231700 20008G16KT P6SM FEW060
SW 89 nm 84' KMIV KMIV 221725Z 2218/2318 32010G18KT P6SM FEW060
  FM222100 32008KT P6SM SKC
  FM230000 VRB02KT P6SM SKC
  FM231300 18006KT P6SM FEW060
  FM231700 18007G16KT P6SM FEW060
SW 89 nm 79' KILG KILG 221725Z 2218/2318 32010G16KT P6SM FEW060
  FM222100 32008KT P6SM SKC
  FM230200 VRB03KT P6SM SKC
  FM231300 18006KT P6SM FEW060
  FM231700 18008G18KT P6SM FEW060

Shortcut to this page: http://wxbay.com.

Data may contain errors.